Time;durP1;ratioP1;P1;durP2;ratioP2;P2;SDS_P1;SDS_P2;PMS_P1;PMS_P2;Temp;Humidity;BMP_temperature;BMP_pressure;BME280_temperature;BME280_humidity;BME280_pressure;Samples;Min_cycle;Max_cycle;Signal;HPM_P1;HPM_P2
2022/12/24 00:00:32;;;;;;;50.08;7.13;;;10.50;99.90;;;;;;5099484;28;20016;-45
2022/12/24 00:02:57;;;;;;;71.95;9.90;;;10.50;99.90;;;;;;5094370;28;20055;-47
2022/12/24 00:05:23;;;;;;;55.10;10.30;;;10.50;99.90;;;;;;5100496;28;20059;-41
2022/12/24 00:07:49;;;;;;;54.15;8.65;;;10.50;99.90;;;;;;5094623;28;20653;-43
2022/12/24 00:10:14;;;;;;;40.92;5.88;;;10.40;99.90;;;;;;5103927;28;20466;-41
2022/12/24 00:12:40;;;;;;;49.40;6.32;;;10.40;99.90;;;;;;5090811;28;20027;-40
2022/12/24 00:15:07;;;;;;;43.05;6.80;;;10.40;99.90;;;;;;5089931;28;20501;-51
2022/12/24 00:17:33;;;;;;;57.53;7.13;;;10.30;99.90;;;;;;5085501;28;20028;-46
2022/12/24 00:19:58;;;;;;;40.38;5.93;;;10.30;99.90;;;;;;5083354;28;20031;-41
2022/12/24 00:22:24;;;;;;;52.42;8.85;;;10.30;99.90;;;;;;5085145;28;20024;-39
2022/12/24 00:24:50;;;;;;;46.95;5.82;;;10.20;99.90;;;;;;5092453;28;20016;-43
2022/12/24 00:27:16;;;;;;;51.30;6.28;;;10.20;99.90;;;;;;5084751;28;20119;-44
2022/12/24 00:29:41;;;;;;;49.88;7.13;;;10.20;99.90;;;;;;5091398;28;20028;-40
2022/12/24 00:32:09;;;;;;;43.88;6.63;;;10.10;99.90;;;;;;5085735;28;20094;-40
2022/12/24 00:34:38;;;;;;;53.83;6.55;;;10.10;99.90;;;;;;5069313;28;20054;-51
2022/12/24 00:37:04;;;;;;;47.90;6.90;;;10.10;99.90;;;;;;5095896;28;20724;-53
2022/12/24 00:39:30;;;;;;;60.85;6.72;;;10.10;99.90;;;;;;5068393;28;20036;-51
2022/12/24 00:41:56;;;;;;;42.08;5.72;;;10.10;99.90;;;;;;5075265;28;20020;-47
2022/12/24 00:44:22;;;;;;;63.08;5.47;;;10.10;99.90;;;;;;5070281;28;20100;-43
2022/12/24 00:46:47;;;;;;;33.60;4.90;;;10.00;99.90;;;;;;5075508;28;20147;-41
2022/12/24 00:49:16;;;;;;;46.28;6.13;;;10.10;99.90;;;;;;5078855;28;20082;-40
2022/12/24 00:51:41;;;;;;;53.20;7.50;;;10.00;99.90;;;;;;5070920;28;20029;-47
2022/12/24 00:54:07;;;;;;;48.58;5.10;;;10.00;99.90;;;;;;5078163;28;20054;-50
2022/12/24 00:56:33;;;;;;;43.92;5.70;;;10.00;99.90;;;;;;5078200;28;20051;-44
2022/12/24 00:58:59;;;;;;;49.45;5.32;;;10.00;99.90;;;;;;5071230;28;20210;-48
2022/12/24 01:01:26;;;;;;;42.00;5.40;;;9.90;99.90;;;;;;5072075;28;20111;-51
2022/12/24 01:05:08;;;;;;;42.70;6.00;;;10.00;99.90;;;;;;5071177;28;20013;-46
2022/12/24 01:06:38;;;;;;;42.28;6.35;;;10.00;99.90;;;;;;5072375;28;20052;-51
2022/12/24 01:09:03;;;;;;;48.55;6.90;;;9.90;99.90;;;;;;5076799;28;20024;-40
2022/12/24 01:11:29;;;;;;;47.80;5.65;;;10.00;99.90;;;;;;5070525;28;20016;-43
2022/12/24 01:13:55;;;;;;;40.47;5.72;;;10.00;99.90;;;;;;5078030;28;20094;-53
2022/12/24 01:16:20;;;;;;;41.25;5.28;;;10.00;99.90;;;;;;5079478;28;20081;-42
2022/12/24 01:18:46;;;;;;;56.33;6.85;;;10.10;99.90;;;;;;5077467;28;20407;-50
2022/12/24 01:21:13;;;;;;;46.38;7.68;;;10.10;99.90;;;;;;5084094;28;20029;-39
2022/12/24 01:23:38;;;;;;;44.05;5.45;;;10.20;99.90;;;;;;5080718;28;20036;-43
2022/12/24 01:26:04;;;;;;;47.13;8.00;;;10.20;99.90;;;;;;5089384;28;20031;-48
2022/12/24 01:28:31;;;;;;;52.08;6.13;;;10.20;99.90;;;;;;5083609;28;20063;-45
2022/12/24 01:30:57;;;;;;;54.65;6.00;;;10.20;99.90;;;;;;5076627;28;20031;-39
2022/12/24 01:33:22;;;;;;;50.00;7.03;;;10.20;99.90;;;;;;5084674;28;20024;-39
2022/12/24 01:35:48;;;;;;;47.75;7.70;;;10.20;99.90;;;;;;5069485;28;20017;-39
2022/12/24 01:38:14;;;;;;;50.70;6.03;;;10.20;99.90;;;;;;5071351;28;20376;-40
2022/12/24 01:43:29;;;;;;;44.65;6.75;;;10.20;99.90;;;;;;5069361;28;20035;-39
2022/12/24 01:46:01;;;;;;;49.22;6.70;;;10.30;99.90;;;;;;5068965;28;20016;-41
2022/12/24 01:48:48;;;;;;;56.88;6.55;;;10.30;99.90;;;;;;5070772;28;20112;-43
2022/12/24 01:51:22;;;;;;;42.60;6.50;;;10.30;99.90;;;;;;5065269;28;20542;-41
2022/12/24 01:53:52;;;;;;;56.95;5.75;;;10.30;99.90;;;;;;5080777;28;20057;-40
2022/12/24 01:56:19;;;;;;;50.65;7.07;;;10.30;99.90;;;;;;5085467;28;20059;-40
2022/12/24 01:58:50;;;;;;;56.13;6.47;;;10.40;99.90;;;;;;5084568;28;20024;-43
2022/12/24 02:01:16;;;;;;;45.50;6.35;;;10.50;99.90;;;;;;5070565;28;20017;-46
2022/12/24 02:03:42;;;;;;;52.20;6.70;;;10.50;99.90;;;;;;5072713;28;20089;-46
2022/12/24 02:06:11;;;;;;;52.80;7.20;;;10.50;99.90;;;;;;5084054;28;20041;-42
2022/12/24 02:08:39;;;;;;;46.27;6.47;;;10.50;99.90;;;;;;5074179;28;20132;-43
2022/12/24 02:11:14;;;;;;;44.60;6.00;;;10.50;99.90;;;;;;5082052;28;20021;-48
2022/12/24 02:13:42;;;;;;;45.42;7.55;;;10.50;99.90;;;;;;5068381;28;20379;-51
2022/12/24 02:16:23;;;;;;;50.95;7.22;;;10.50;99.90;;;;;;5071462;28;20027;-42
2022/12/24 02:18:59;;;;;;;50.72;6.32;;;10.50;99.90;;;;;;5071540;28;20017;-42
2022/12/24 02:21:55;;;;;;;49.85;7.05;;;10.50;99.90;;;;;;5071341;28;20025;-41
2022/12/24 02:24:30;;;;;;;51.28;6.50;;;10.50;99.90;;;;;;5071591;28;20357;-40
2022/12/24 02:27:13;;;;;;;53.13;7.05;;;10.50;99.90;;;;;;5071169;28;20083;-40
2022/12/24 02:29:42;;;;;;;47.42;6.43;;;10.50;99.90;;;;;;5057501;28;20134;-39
2022/12/24 02:32:31;;;;;;;42.80;6.15;;;10.50;99.90;;;;;;5071515;28;20062;-45
2022/12/24 02:35:14;;;;;;;43.20;5.63;;;10.50;99.90;;;;;;5060588;28;20073;-45
2022/12/24 02:37:45;;;;;;;49.85;7.22;;;10.50;99.90;;;;;;5071232;28;20040;-41
2022/12/24 02:40:28;;;;;;;56.55;6.43;;;10.50;99.90;;;;;;5071340;28;20066;-51
2022/12/24 02:43:03;;;;;;;46.05;6.13;;;10.60;99.90;;;;;;5071073;28;20036;-41
2022/12/24 02:45:31;;;;;;;46.15;6.40;;;10.60;99.90;;;;;;5071275;28;20479;-41
2022/12/24 02:47:58;;;;;;;54.10;5.70;;;10.50;99.90;;;;;;5053121;28;20086;-44
2022/12/24 02:50:24;;;;;;;48.65;7.38;;;10.50;99.90;;;;;;5070951;28;20024;-40
2022/12/24 02:52:50;;;;;;;50.47;5.68;;;10.40;99.90;;;;;;5070919;28;20071;-39
2022/12/24 02:55:21;;;;;;;35.33;5.50;;;10.30;99.90;;;;;;5053222;28;20044;-41
2022/12/24 02:58:09;;;;;;;46.17;7.30;;;10.30;99.90;;;;;;5071024;28;20479;-45
2022/12/24 03:01:17;;;;;;;51.95;5.75;;;10.30;99.90;;;;;;5070815;28;20020;-44
2022/12/24 03:03:45;;;;;;;53.00;8.80;;;10.20;99.90;;;;;;5070720;28;20020;-51
2022/12/24 03:06:35;;;;;;;51.17;6.05;;;10.10;99.90;;;;;;5071034;28;20029;-46
2022/12/24 03:09:12;;;;;;;45.38;6.65;;;10.10;99.90;;;;;;5058904;28;20044;-42
2022/12/24 03:11:43;;;;;;;50.15;6.70;;;10.00;99.90;;;;;;5070830;28;20032;-51
2022/12/24 03:14:09;;;;;;;51.50;5.72;;;10.10;99.90;;;;;;5070848;28;20028;-47
2022/12/24 03:16:35;;;;;;;48.05;5.80;;;10.00;99.90;;;;;;5070897;28;20038;-50
2022/12/24 03:19:01;;;;;;;47.33;5.97;;;10.00;99.90;;;;;;5070900;28;20016;-40
2022/12/24 03:21:33;;;;;;;52.45;6.13;;;9.90;99.90;;;;;;5070885;28;20460;-45
2022/12/24 03:23:59;;;;;;;57.28;5.53;;;9.90;99.90;;;;;;5069963;28;20040;-39
2022/12/24 03:26:27;;;;;;;53.58;6.25;;;9.90;99.90;;;;;;5070307;28;20108;-41
2022/12/24 03:28:53;;;;;;;51.58;5.60;;;9.90;99.90;;;;;;5070111;28;20087;-47
2022/12/24 03:31:19;;;;;;;43.08;6.43;;;9.90;99.90;;;;;;5052462;28;20055;-45
2022/12/24 03:33:46;;;;;;;45.55;7.15;;;9.90;99.90;;;;;;5070422;28;20028;-45
2022/12/24 03:36:12;;;;;;;50.78;5.95;;;9.80;99.90;;;;;;5070375;28;20024;-44
2022/12/24 03:38:37;;;;;;;56.53;6.93;;;9.80;99.90;;;;;;5070217;28;20028;-43
2022/12/24 03:41:04;;;;;;;45.00;6.57;;;9.80;99.90;;;;;;5069911;28;20024;-39
2022/12/24 03:43:29;;;;;;;49.13;5.57;;;9.80;99.90;;;;;;5070369;28;20025;-39
2022/12/24 03:45:55;;;;;;;54.13;6.90;;;9.80;99.90;;;;;;5069819;28;20031;-39
2022/12/24 03:48:21;;;;;;;47.20;5.18;;;9.80;99.90;;;;;;5070157;28;20115;-39
2022/12/24 03:50:46;;;;;;;52.22;5.65;;;9.80;99.90;;;;;;5070332;28;20494;-41
2022/12/24 03:53:12;;;;;;;49.58;5.97;;;9.80;99.90;;;;;;5070032;28;20052;-49
2022/12/24 03:55:38;;;;;;;44.50;5.68;;;9.70;99.90;;;;;;5070055;28;20117;-43
2022/12/24 03:58:04;;;;;;;46.50;6.38;;;9.70;99.90;;;;;;5070117;28;20021;-47
2022/12/24 04:00:29;;;;;;;58.97;7.22;;;9.70;99.90;;;;;;5070234;28;20025;-48
2022/12/24 04:02:55;;;;;;;57.83;5.97;;;9.70;99.90;;;;;;5070536;28;20021;-49
2022/12/24 04:05:21;;;;;;;45.60;6.57;;;9.70;99.90;;;;;;5070193;28;20385;-50
2022/12/24 04:07:47;;;;;;;53.35;6.50;;;9.60;99.90;;;;;;5070039;28;20029;-40
2022/12/24 04:10:14;;;;;;;46.97;6.28;;;9.60;99.90;;;;;;5070190;28;20025;-44
2022/12/24 04:12:40;;;;;;;47.15;5.13;;;9.60;99.90;;;;;;5070238;28;20028;-44
2022/12/24 04:15:06;;;;;;;59.53;9.13;;;9.50;99.90;;;;;;5072977;28;20027;-46
2022/12/24 04:17:32;;;;;;;47.60;6.07;;;9.50;99.90;;;;;;5055815;28;20052;-41
2022/12/24 04:19:58;;;;;;;50.97;6.10;;;9.50;99.90;;;;;;5073343;28;20119;-40
2022/12/24 04:22:23;;;;;;;54.05;5.68;;;9.50;99.90;;;;;;5073632;28;20020;-39
2022/12/24 04:24:49;;;;;;;41.92;6.25;;;9.50;99.90;;;;;;5073597;28;20042;-42
2022/12/24 04:27:15;;;;;;;50.33;6.05;;;9.40;99.90;;;;;;5055959;28;20111;-43
2022/12/24 04:29:42;;;;;;;40.20;5.28;;;9.50;99.90;;;;;;5073723;28;20047;-42
2022/12/24 04:32:08;;;;;;;48.55;5.90;;;9.50;99.90;;;;;;5073581;28;20029;-44
2022/12/24 04:34:35;;;;;;;44.75;5.82;;;9.40;99.90;;;;;;5055641;28;20044;-39
2022/12/24 04:37:01;;;;;;;45.95;5.25;;;9.40;99.90;;;;;;5073466;28;20031;-41
2022/12/24 04:39:27;;;;;;;52.45;5.57;;;9.40;99.90;;;;;;5073204;28;20439;-40
2022/12/24 04:41:52;;;;;;;48.70;5.22;;;9.40;99.90;;;;;;5073131;28;20047;-48
2022/12/24 04:44:18;;;;;;;45.22;5.53;;;9.40;99.90;;;;;;5072784;28;20099;-40
2022/12/24 04:46:44;;;;;;;54.63;6.53;;;9.40;99.90;;;;;;5073567;28;20025;-45
2022/12/24 04:49:10;;;;;;;46.60;5.32;;;9.40;99.90;;;;;;5073273;28;20495;-51
2022/12/24 04:51:35;;;;;;;43.75;5.43;;;9.30;99.90;;;;;;5073428;28;20387;-48
2022/12/24 04:54:01;;;;;;;55.88;6.68;;;9.30;99.90;;;;;;5073117;28;20020;-40
2022/12/24 04:56:29;;;;;;;47.58;6.13;;;9.20;99.90;;;;;;5072968;28;20475;-39
2022/12/24 04:58:56;;;;;;;43.97;4.40;;;9.20;99.90;;;;;;5073111;28;20117;-48
2022/12/24 05:01:24;;;;;;;60.60;5.90;;;9.20;99.90;;;;;;5054708;28;20020;-43
2022/12/24 05:03:50;;;;;;;40.00;6.22;;;9.20;99.90;;;;;;5073013;28;20020;-40
2022/12/24 05:06:19;;;;;;;44.95;5.15;;;9.20;99.90;;;;;;5072884;28;20032;-39
2022/12/24 05:08:44;;;;;;;55.67;5.77;;;9.20;99.90;;;;;;5072941;28;20044;-40
2022/12/24 05:11:15;;;;;;;39.28;4.97;;;9.20;99.90;;;;;;5072865;28;20028;-39
2022/12/24 05:13:43;;;;;;;40.70;5.10;;;9.20;99.90;;;;;;5072932;28;20437;-40
2022/12/24 05:16:10;;;;;;;39.60;4.70;;;9.10;99.90;;;;;;5072837;28;20356;-41
2022/12/24 05:18:35;;;;;;;45.10;5.43;;;9.10;99.90;;;;;;5072868;28;20044;-43
2022/12/24 05:21:01;;;;;;;37.72;4.55;;;9.10;99.90;;;;;;5072860;28;20067;-40
2022/12/24 05:26:26;;;;;;;44.95;5.93;;;9.10;99.90;;;;;;5072913;28;20043;-41
2022/12/24 05:28:55;;;;;;;41.05;4.93;;;9.00;99.90;;;;;;5054612;28;20049;-39
2022/12/24 05:31:23;;;;;;;32.00;4.20;;;9.10;99.90;;;;;;5072462;28;20422;-39
2022/12/24 05:33:48;;;;;;;32.03;4.93;;;9.00;99.90;;;;;;5072312;28;20020;-41
2022/12/24 05:36:14;;;;;;;34.08;4.95;;;9.00;99.90;;;;;;5072485;28;20372;-40
2022/12/24 05:38:40;;;;;;;35.20;5.10;;;9.00;99.90;;;;;;5072418;28;20028;-38
2022/12/24 05:41:09;;;;;;;34.28;5.45;;;8.90;99.90;;;;;;5072351;28;20421;-41
2022/12/24 05:43:38;;;;;;;39.40;4.45;;;8.90;99.90;;;;;;5072588;28;20089;-45
2022/12/24 05:46:08;;;;;;;49.45;4.55;;;8.90;99.90;;;;;;5072098;28;20013;-48
2022/12/24 05:48:34;;;;;;;;;;;8.90;99.90;;;;;;5072623;28;20040;-44
2022/12/24 05:51:04;;;;;;;42.00;5.75;;;8.90;99.90;;;;;;5072263;28;19909;-53
2022/12/24 05:53:31;;;;;;;39.63;5.28;;;8.90;99.90;;;;;;5072362;28;20040;-39
2022/12/24 05:56:07;;;;;;;45.25;5.10;;;8.90;99.90;;;;;;5071994;28;20024;-43
2022/12/24 05:58:34;;;;;;;37.58;4.43;;;8.90;99.90;;;;;;5071969;28;20029;-39
2022/12/24 06:01:01;;;;;;;37.83;4.57;;;8.80;99.90;;;;;;5071832;28;20032;-41
2022/12/24 06:03:28;;;;;;;38.38;4.97;;;8.80;99.90;;;;;;5072076;28;20467;-54
2022/12/24 06:06:00;;;;;;;38.65;4.93;;;8.80;99.90;;;;;;5071846;28;20031;-47
2022/12/24 06:08:27;;;;;;;42.65;5.50;;;8.80;99.90;;;;;;5071510;28;20028;-45
2022/12/24 06:10:55;;;;;;;44.88;4.75;;;8.90;99.90;;;;;;5071843;28;20043;-49
2022/12/24 06:13:21;;;;;;;40.60;4.15;;;8.90;99.90;;;;;;5071412;28;20474;-47
2022/12/24 06:15:46;;;;;;;47.70;5.35;;;8.80;99.90;;;;;;5076855;28;20050;-38
2022/12/24 06:18:12;;;;;;;40.40;4.45;;;8.80;99.90;;;;;;5075569;28;20032;-39
2022/12/24 06:20:37;;;;;;;34.47;4.38;;;8.80;99.90;;;;;;5071011;28;20052;-39
2022/12/24 06:23:03;;;;;;;30.85;3.63;;;8.90;99.90;;;;;;5071369;28;20033;-38
2022/12/24 06:25:29;;;;;;;33.85;4.28;;;8.90;99.90;;;;;;5072260;28;20024;-39
2022/12/24 06:27:54;;;;;;;36.05;5.03;;;8.90;99.90;;;;;;5071015;28;20155;-39
2022/12/24 06:30:20;;;;;;;37.08;5.85;;;8.90;99.90;;;;;;5072632;28;20066;-38
2022/12/24 06:32:45;;;;;;;43.45;6.50;;;8.80;99.90;;;;;;5071152;28;20029;-44
2022/12/24 06:35:11;;;;;;;40.05;5.53;;;8.80;99.90;;;;;;5071335;28;20050;-39
2022/12/24 06:37:36;;;;;;;46.15;4.88;;;8.80;99.90;;;;;;5070539;28;20021;-39
2022/12/24 06:40:02;;;;;;;43.85;5.78;;;8.80;99.90;;;;;;5071257;28;20032;-39
2022/12/24 06:42:28;;;;;;;43.92;4.68;;;8.70;99.90;;;;;;5051939;28;20039;-40
2022/12/24 06:44:54;;;;;;;47.60;5.05;;;8.70;99.90;;;;;;5071019;28;20028;-39
2022/12/24 06:47:19;;;;;;;46.20;5.55;;;8.70;99.90;;;;;;5070072;28;20127;-40
2022/12/24 06:49:45;;;;;;;39.53;5.07;;;8.70;99.90;;;;;;5082142;28;20379;-39
2022/12/24 06:52:10;;;;;;;41.58;4.80;;;8.70;99.90;;;;;;5076173;28;20036;-40
2022/12/24 06:54:36;;;;;;;40.28;5.13;;;8.70;99.90;;;;;;5070189;28;20475;-40
2022/12/24 06:57:02;;;;;;;39.92;5.05;;;8.60;99.90;;;;;;5079940;28;20395;-40
2022/12/24 06:59:27;;;;;;;33.25;5.10;;;8.70;99.90;;;;;;5073718;28;20033;-42
2022/12/24 07:01:53;;;;;;;41.95;5.18;;;8.60;99.90;;;;;;5070125;28;20031;-41
2022/12/24 07:04:19;;;;;;;48.22;5.40;;;8.60;99.90;;;;;;5071064;28;20024;-40
2022/12/24 07:06:44;;;;;;;29.38;4.18;;;8.60;99.90;;;;;;5069677;28;20052;-48
2022/12/24 07:09:13;;;;;;;41.30;4.88;;;8.50;99.90;;;;;;5069898;28;20028;-48
2022/12/24 07:11:38;;;;;;;35.45;4.97;;;8.50;99.90;;;;;;5070608;28;20387;-42
2022/12/24 07:14:04;;;;;;;29.75;3.88;;;8.40;99.90;;;;;;5069654;28;20499;-49
2022/12/24 07:16:30;;;;;;;25.25;3.75;;;8.30;99.90;;;;;;5069772;28;20531;-44
2022/12/24 07:18:55;;;;;;;36.50;4.57;;;8.20;99.90;;;;;;5048078;28;20160;-41
2022/12/24 07:21:21;;;;;;;37.20;5.43;;;8.10;99.90;;;;;;5079276;28;20028;-46
2022/12/24 07:23:47;;;;;;;31.45;3.95;;;8.10;99.90;;;;;;5072555;28;20024;-44
2022/12/24 07:26:13;;;;;;;37.05;4.68;;;8.00;99.90;;;;;;5077494;28;20035;-40
2022/12/24 07:28:39;;;;;;;28.00;3.08;;;7.90;99.90;;;;;;5074276;28;20098;-48
2022/12/24 07:31:05;;;;;;;29.85;3.70;;;7.90;99.90;;;;;;5070425;28;20017;-39
2022/12/24 07:33:30;;;;;;;26.58;3.80;;;7.80;99.90;;;;;;5070119;28;20024;-40
2022/12/24 07:36:01;;;;;;;25.42;2.92;;;7.70;99.90;;;;;;5069648;28;20703;-47
2022/12/24 07:38:27;;;;;;;21.70;3.13;;;7.60;99.90;;;;;;5068905;28;20039;-45
2022/12/24 07:40:53;;;;;;;26.60;3.45;;;7.50;99.90;;;;;;5068798;28;20103;-46
2022/12/24 07:43:18;;;;;;;19.33;3.03;;;7.40;99.90;;;;;;5068328;28;20116;-43
2022/12/24 07:45:44;;;;;;;24.20;3.50;;;7.40;99.90;;;;;;5068433;28;20021;-40
2022/12/24 07:48:10;;;;;;;26.52;3.65;;;7.30;99.90;;;;;;5068360;28;20329;-50
2022/12/24 07:50:35;;;;;;;19.23;3.17;;;7.20;99.90;;;;;;5072601;28;20032;-45
2022/12/24 07:53:01;;;;;;;32.28;3.88;;;7.10;99.90;;;;;;5071755;28;20019;-41
2022/12/24 07:55:27;;;;;;;24.95;3.45;;;7.10;99.90;;;;;;5072363;28;20024;-44
2022/12/24 07:57:52;;;;;;;21.63;4.10;;;7.10;99.90;;;;;;5073029;28;20019;-39
2022/12/24 08:00:18;;;;;;;28.80;3.58;;;7.00;99.90;;;;;;5074230;28;20029;-48
2022/12/24 08:02:44;;;;;;;41.92;4.85;;;7.00;99.90;;;;;;5074003;28;20095;-41
2022/12/24 08:05:09;;;;;;;24.95;3.92;;;7.30;99.90;;;;;;5074216;28;20033;-46
2022/12/24 08:07:35;;;;;;;25.45;4.32;;;7.30;99.90;;;;;;5074202;28;20068;-45
2022/12/24 08:10:00;;;;;;;23.70;3.67;;;7.20;99.90;;;;;;5073723;28;20050;-39
2022/12/24 08:12:26;;;;;;;25.67;4.13;;;7.10;99.90;;;;;;5074283;28;20043;-43
2022/12/24 08:14:52;;;;;;;29.23;3.28;;;7.00;99.90;;;;;;5073884;28;20499;-45
2022/12/24 08:17:17;;;;;;;23.95;3.35;;;7.00;99.90;;;;;;5074020;28;20025;-47
2022/12/24 08:19:43;;;;;;;22.70;3.22;;;7.00;99.90;;;;;;5073902;28;20029;-53
2022/12/24 08:22:08;;;;;;;23.55;3.53;;;7.00;99.90;;;;;;5073724;28;20054;-54
2022/12/24 08:24:34;;;;;;;19.98;4.00;;;7.00;99.90;;;;;;5073853;28;20035;-58
2022/12/24 08:27:00;;;;;;;24.05;3.83;;;7.00;99.90;;;;;;5073640;28;20032;-44
2022/12/24 08:29:25;;;;;;;18.88;3.72;;;7.00;99.90;;;;;;5073732;28;20112;-49
2022/12/24 08:31:51;;;;;;;20.33;2.90;;;7.00;99.90;;;;;;5073783;28;20468;-44
2022/12/24 08:34:16;;;;;;;25.48;4.13;;;7.10;99.90;;;;;;5073484;28;20129;-42
2022/12/24 08:36:42;;;;;;;24.08;3.47;;;7.10;99.90;;;;;;5073637;28;20403;-49
2022/12/24 08:39:09;;;;;;;23.23;3.92;;;7.10;99.90;;;;;;5073496;28;20029;-41
2022/12/24 08:41:35;;;;;;;23.23;3.75;;;7.10;99.90;;;;;;5073630;28;20025;-43
2022/12/24 08:44:01;;;;;;;25.52;3.90;;;7.10;99.90;;;;;;5073366;28;20090;-40
2022/12/24 08:46:27;;;;;;;29.95;4.28;;;7.20;99.90;;;;;;5073333;28;20475;-42
2022/12/24 08:48:52;;;;;;;21.30;4.25;;;7.20;99.90;;;;;;5073482;28;20066;-40
2022/12/24 08:51:18;;;;;;;22.10;3.92;;;7.30;99.90;;;;;;5073362;28;20017;-42
2022/12/24 08:53:45;;;;;;;18.95;3.42;;;7.30;99.90;;;;;;5055395;28;20021;-39
2022/12/24 08:56:11;;;;;;;14.55;3.20;;;7.40;99.90;;;;;;5073201;28;20369;-44
2022/12/24 08:58:37;;;;;;;19.27;3.08;;;7.40;99.90;;;;;;5073483;28;20413;-41
2022/12/24 09:01:11;;;;;;;21.73;2.70;;;7.40;99.90;;;;;;5072698;28;20533;-42
2022/12/24 09:03:37;;;;;;;19.10;3.53;;;7.50;99.90;;;;;;5073091;28;20043;-40
2022/12/24 09:06:04;;;;;;;17.77;3.38;;;7.50;99.90;;;;;;5073106;28;20020;-41
2022/12/24 09:08:30;;;;;;;16.90;3.17;;;7.60;99.90;;;;;;5073173;28;20041;-43
2022/12/24 09:11:00;;;;;;;18.35;3.20;;;7.60;99.90;;;;;;5073125;28;20020;-43
2022/12/24 09:13:27;;;;;;;16.52;3.00;;;7.80;99.90;;;;;;5072968;28;20024;-43
2022/12/24 09:15:54;;;;;;;21.58;3.90;;;7.80;99.90;;;;;;5072818;28;20476;-41
2022/12/24 09:18:20;;;;;;;16.88;3.20;;;7.80;99.90;;;;;;5072784;28;20032;-40
2022/12/24 09:20:45;;;;;;;21.15;3.55;;;7.80;99.90;;;;;;5072771;28;20535;-46
2022/12/24 09:23:11;;;;;;;20.23;4.32;;;7.80;99.90;;;;;;5072768;28;20029;-49
2022/12/24 09:25:41;;;;;;;17.23;3.65;;;7.90;99.90;;;;;;5072809;28;20031;-41
2022/12/24 09:28:06;;;;;;;16.55;3.13;;;8.00;99.90;;;;;;5072548;28;20072;-43
2022/12/24 09:30:32;;;;;;;15.02;2.45;;;8.10;99.90;;;;;;5072661;28;20052;-43
2022/12/24 09:32:58;;;;;;;14.48;2.88;;;8.30;99.90;;;;;;5072711;28;20078;-40
2022/12/24 09:35:23;;;;;;;15.00;2.75;;;8.30;99.90;;;;;;5072543;28;20039;-40
2022/12/24 09:38:01;;;;;;;17.25;3.28;;;8.40;99.90;;;;;;5072620;28;20040;-40
2022/12/24 09:40:34;;;;;;;21.08;4.35;;;8.60;99.90;;;;;;5072470;28;20044;-41
2022/12/24 09:43:01;;;;;;;18.73;3.22;;;8.80;99.90;;;;;;5072574;28;20036;-43
2022/12/24 09:45:36;;;;;;;15.13;3.00;;;8.90;99.90;;;;;;5072401;28;20379;-42
2022/12/24 09:48:13;;;;;;;22.17;3.55;;;9.10;99.90;;;;;;5072106;28;20546;-40
2022/12/24 09:50:44;;;;;;;27.23;3.90;;;9.10;99.90;;;;;;5072292;28;20032;-41
2022/12/24 09:53:29;;;;;;;27.20;3.72;;;9.10;99.90;;;;;;5071999;28;20551;-45
2022/12/24 09:56:00;;;;;;;20.83;3.70;;;9.20;99.90;;;;;;5072093;28;20037;-42
2022/12/24 09:58:38;;;;;;;26.67;3.75;;;9.20;99.90;;;;;;5072090;28;20017;-48
2022/12/24 10:01:04;;;;;;;19.50;2.80;;;9.30;99.90;;;;;;5071958;28;20029;-47
2022/12/24 10:03:30;;;;;;;14.70;2.90;;;9.30;99.90;;;;;;5071807;28;20077;-49
2022/12/24 10:05:59;;;;;;;29.75;3.90;;;9.40;99.90;;;;;;5071931;28;20039;-42
2022/12/24 10:09:00;;;;;;;23.08;3.20;;;9.50;99.90;;;;;;5071868;28;20029;-46
2022/12/24 10:11:49;;;;;;;21.23;3.05;;;9.70;99.90;;;;;;5039787;28;20071;-40
2022/12/24 10:14:34;;;;;;;21.73;3.20;;;9.90;99.90;;;;;;5054003;28;20065;-43
2022/12/24 10:17:17;;;;;;;19.50;3.00;;;10.10;99.90;;;;;;5071551;28;20055;-45
2022/12/24 10:20:10;;;;;;;22.55;3.33;;;10.30;99.90;;;;;;5071509;28;20021;-45
2022/12/24 10:22:58;;;;;;;21.70;3.17;;;10.60;99.90;;;;;;5071633;28;20036;-45
2022/12/24 10:25:42;;;;;;;24.92;3.65;;;10.70;99.90;;;;;;5071340;28;20023;-40
2022/12/24 10:28:18;;;;;;;20.80;3.53;;;10.50;99.90;;;;;;5071358;28;20048;-40
2022/12/24 10:30:56;;;;;;;19.58;3.38;;;10.50;99.90;;;;;;5071514;28;20013;-39
2022/12/24 10:33:44;;;;;;;21.23;3.80;;;10.50;99.90;;;;;;5071669;28;20085;-46
2022/12/24 10:36:25;;;;;;;27.70;3.85;;;10.40;99.90;;;;;;5071369;28;20020;-40
2022/12/24 10:38:51;;;;;;;20.90;3.30;;;10.50;99.90;;;;;;5071434;28;20020;-46
2022/12/24 10:41:17;;;;;;;21.40;3.33;;;10.60;99.90;;;;;;5071284;28;20028;-50
2022/12/24 10:43:44;;;;;;;23.02;2.80;;;10.60;99.90;;;;;;5071656;28;20447;-42
2022/12/24 10:46:31;;;;;;;22.48;3.63;;;10.60;99.90;;;;;;5070925;28;20059;-40
2022/12/24 10:49:01;;;;;;;19.50;2.90;;;10.70;99.90;;;;;;5052916;28;20400;-42
2022/12/24 10:51:36;;;;;;;19.58;3.67;;;10.80;99.90;;;;;;5070943;28;20028;-53
2022/12/24 10:54:15;;;;;;;20.45;3.65;;;11.00;99.90;;;;;;5070960;28;20041;-47
2022/12/24 10:56:58;;;;;;;26.60;3.47;;;11.30;99.90;;;;;;5071030;28;20107;-48
2022/12/24 10:59:41;;;;;;;24.73;4.50;;;11.60;99.90;;;;;;5071012;28;20028;-45
2022/12/24 11:02:37;;;;;;;26.35;4.57;;;11.70;99.90;;;;;;5070981;28;20077;-48
2022/12/24 11:05:25;;;;;;;32.22;4.43;;;11.90;99.90;;;;;;5053959;28;20147;-46
2022/12/24 11:08:11;;;;;;;27.85;4.38;;;11.90;99.90;;;;;;5070717;28;20083;-44
2022/12/24 11:10:41;;;;;;;20.77;3.70;;;11.90;99.90;;;;;;5069892;28;20039;-47
2022/12/24 11:13:29;;;;;;;28.02;4.50;;;11.90;99.90;;;;;;5070609;28;20025;-48
2022/12/24 11:16:01;;;;;;;21.30;3.40;;;11.90;99.90;;;;;;5070928;28;20073;-47
2022/12/24 11:18:27;;;;;;;27.02;5.63;;;12.00;99.90;;;;;;5070668;28;20376;-47
2022/12/24 11:20:53;;;;;;;30.65;4.65;;;12.20;99.90;;;;;;5070813;28;20134;-41
2022/12/24 11:23:19;;;;;;;26.20;4.00;;;12.40;99.90;;;;;;5070508;28;20035;-47
2022/12/24 11:25:50;;;;;;;26.73;4.10;;;12.50;99.90;;;;;;5070578;28;20021;-42
2022/12/24 11:28:23;;;;;;;26.17;4.45;;;12.50;99.90;;;;;;5070298;28;20529;-39
2022/12/24 11:31:00;;;;;;;31.38;3.92;;;12.40;99.90;;;;;;5070575;28;20016;-39
2022/12/24 11:33:26;;;;;;;24.23;4.55;;;12.30;99.90;;;;;;5070635;28;20024;-47
2022/12/24 11:35:56;;;;;;;28.85;4.85;;;12.20;99.90;;;;;;5052551;28;20021;-42
2022/12/24 11:38:25;;;;;;;32.92;4.45;;;12.10;99.90;;;;;;5070480;28;20105;-39
2022/12/24 11:41:03;;;;;;;31.55;4.60;;;12.00;99.90;;;;;;5070375;28;20032;-42
2022/12/24 11:43:45;;;;;;;30.70;4.45;;;11.90;99.90;;;;;;5070606;28;20479;-41
2022/12/24 11:46:38;;;;;;;31.02;4.32;;;11.90;99.90;;;;;;5070223;28;20035;-43
2022/12/24 11:49:12;;;;;;;29.00;4.80;;;11.90;99.90;;;;;;5070383;28;20040;-43
2022/12/24 11:51:57;;;;;;;27.25;4.50;;;11.90;99.90;;;;;;5070626;28;20188;-40
2022/12/24 11:54:28;;;;;;;26.23;4.05;;;12.00;99.90;;;;;;5070379;28;20028;-46
2022/12/24 11:56:57;;;;;;;29.08;4.38;;;12.10;99.90;;;;;;5070297;28;20526;-39
2022/12/24 11:59:27;;;;;;;25.85;4.47;;;12.20;99.90;;;;;;5073156;28;20042;-40
2022/12/24 12:02:18;;;;;;;36.60;6.00;;;12.40;99.90;;;;;;5074185;28;20021;-40
2022/12/24 12:04:48;;;;;;;30.00;4.85;;;12.50;99.90;;;;;;5073282;28;20052;-40
2022/12/24 12:07:23;;;;;;;25.88;4.13;;;12.60;99.90;;;;;;5075517;28;20478;-44
2022/12/24 12:09:58;;;;;;;26.52;4.20;;;12.70;99.90;;;;;;5083899;28;20563;-44
2022/12/24 12:12:33;;;;;;;31.77;4.80;;;12.70;99.90;;;;;;5083896;28;20035;-47
2022/12/24 12:15:12;;;;;;;32.55;4.75;;;12.90;99.90;;;;;;5085885;28;20105;-43
2022/12/24 12:17:40;;;;;;;25.17;3.95;;;13.30;99.90;;;;;;5065054;28;20024;-41
2022/12/24 12:20:24;;;;;;;27.95;3.97;;;13.80;99.90;;;;;;5081295;28;20028;-38
2022/12/24 12:22:49;;;;;;;26.73;4.38;;;13.90;99.90;;;;;;5069857;28;20032;-51
2022/12/24 12:25:31;;;;;;;23.73;4.20;;;13.70;99.90;;;;;;5069408;28;20082;-40
2022/12/24 12:28:01;;;;;;;29.60;5.25;;;13.30;99.90;;;;;;5066942;28;20763;-40
2022/12/24 12:30:28;;;;;;;34.35;5.70;;;12.90;99.90;;;;;;5068240;28;20031;-46
2022/12/24 12:33:03;;;;;;;28.88;4.53;;;12.80;99.90;;;;;;5081062;28;20554;-40
2022/12/24 12:35:40;;;;;;;31.95;5.22;;;12.90;99.90;;;;;;5071605;28;20024;-41
2022/12/24 12:38:19;;;;;;;25.23;4.78;;;13.00;99.90;;;;;;5079273;28;20051;-40
2022/12/24 12:41:11;;;;;;;30.27;4.13;;;13.20;99.90;;;;;;5079619;28;20028;-40
2022/12/24 12:43:39;;;;;;;27.60;3.85;;;13.30;99.90;;;;;;5080584;28;20265;-51
2022/12/24 12:46:15;;;;;;;33.83;4.73;;;13.60;99.90;;;;;;5083392;28;20027;-45
2022/12/24 12:49:05;;;;;;;30.98;5.40;;;13.70;99.90;;;;;;5075667;28;20040;-44
2022/12/24 12:51:42;;;;;;;34.42;5.40;;;13.50;99.90;;;;;;5068688;28;20479;-40
2022/12/24 12:54:19;;;;;;;33.60;4.30;;;13.40;99.90;;;;;;5074184;28;20036;-39
2022/12/24 12:56:51;;;;;;;24.38;4.13;;;13.30;99.90;;;;;;5051696;28;20404;-39
2022/12/24 12:59:23;;;;;;;31.40;5.28;;;13.40;99.90;;;;;;5072755;28;20020;-42
2022/12/24 13:02:15;;;;;;;25.42;4.15;;;13.60;99.90;;;;;;5073134;28;20036;-40